sensor_id;sensor_type;location;lat;lon;timestamp;P1;durP1;ratioP1;P2;durP2;ratioP2
34924;SDS011;21130;51.728;8.748;2023-08-08T00:01:45;6.47;;;5.13;;
34924;SDS011;21130;51.728;8.748;2023-08-08T00:04:11;6.53;;;4.85;;
34924;SDS011;21130;51.728;8.748;2023-08-08T00:06:38;6.53;;;4.32;;
34924;SDS011;21130;51.728;8.748;2023-08-08T00:09:06;5.55;;;4.60;;
34924;SDS011;21130;51.728;8.748;2023-08-08T00:11:33;7.13;;;4.18;;
34924;SDS011;21130;51.728;8.748;2023-08-08T00:13:59;5.65;;;4.72;;
34924;SDS011;21130;51.728;8.748;2023-08-08T00:16:26;5.82;;;4.10;;
34924;SDS011;21130;51.728;8.748;2023-08-08T00:18:52;5.65;;;3.95;;
34924;SDS011;21130;51.728;8.748;2023-08-08T00:21:19;7.10;;;4.20;;
34924;SDS011;21130;51.728;8.748;2023-08-08T00:23:46;6.72;;;4.53;;
34924;SDS011;21130;51.728;8.748;2023-08-08T00:26:14;7.20;;;4.22;;
34924;SDS011;21130;51.728;8.748;2023-08-08T00:28:41;5.88;;;3.78;;
34924;SDS011;21130;51.728;8.748;2023-08-08T00:31:07;7.00;;;4.32;;
34924;SDS011;21130;51.728;8.748;2023-08-08T00:33:34;5.28;;;3.60;;
34924;SDS011;21130;51.728;8.748;2023-08-08T00:36:00;6.70;;;3.50;;
34924;SDS011;21130;51.728;8.748;2023-08-08T00:38:27;6.45;;;3.72;;
34924;SDS011;21130;51.728;8.748;2023-08-08T00:40:53;4.90;;;3.63;;
34924;SDS011;21130;51.728;8.748;2023-08-08T00:43:21;4.60;;;3.78;;
34924;SDS011;21130;51.728;8.748;2023-08-08T00:45:48;4.38;;;3.53;;
34924;SDS011;21130;51.728;8.748;2023-08-08T00:48:15;5.20;;;3.55;;
34924;SDS011;21130;51.728;8.748;2023-08-08T00:50:43;5.47;;;3.40;;
34924;SDS011;21130;51.728;8.748;2023-08-08T00:53:10;4.63;;;3.10;;
34924;SDS011;21130;51.728;8.748;2023-08-08T00:55:36;6.90;;;3.42;;
34924;SDS011;21130;51.728;8.748;2023-08-08T00:58:03;4.47;;;3.40;;
34924;SDS011;21130;51.728;8.748;2023-08-08T01:00:31;4.50;;;3.10;;
34924;SDS011;21130;51.728;8.748;2023-08-08T01:02:58;6.95;;;3.30;;
34924;SDS011;21130;51.728;8.748;2023-08-08T01:05:25;5.65;;;3.30;;
34924;SDS011;21130;51.728;8.748;2023-08-08T01:07:59;3.53;;;2.75;;
34924;SDS011;21130;51.728;8.748;2023-08-08T01:10:31;5.15;;;3.13;;
34924;SDS011;21130;51.728;8.748;2023-08-08T01:13:02;4.95;;;2.72;;
34924;SDS011;21130;51.728;8.748;2023-08-08T01:15:33;5.60;;;2.95;;
34924;SDS011;21130;51.728;8.748;2023-08-08T01:18:01;3.47;;;2.55;;
34924;SDS011;21130;51.728;8.748;2023-08-08T01:20:29;5.00;;;2.80;;
34924;SDS011;21130;51.728;8.748;2023-08-08T01:22:59;4.60;;;3.10;;
34924;SDS011;21130;51.728;8.748;2023-08-08T01:25:37;3.70;;;2.55;;
34924;SDS011;21130;51.728;8.748;2023-08-08T01:28:05;5.22;;;2.67;;
34924;SDS011;21130;51.728;8.748;2023-08-08T01:30:32;4.43;;;2.78;;
34924;SDS011;21130;51.728;8.748;2023-08-08T01:32:59;6.15;;;2.95;;
34924;SDS011;21130;51.728;8.748;2023-08-08T01:35:29;5.70;;;3.15;;
34924;SDS011;21130;51.728;8.748;2023-08-08T01:37:58;4.07;;;2.63;;
34924;SDS011;21130;51.728;8.748;2023-08-08T01:40:31;3.33;;;2.60;;
34924;SDS011;21130;51.728;8.748;2023-08-08T01:43:00;10.13;;;3.10;;
34924;SDS011;21130;51.728;8.748;2023-08-08T01:45:28;6.95;;;3.20;;
34924;SDS011;21130;51.728;8.748;2023-08-08T01:47:53;3.80;;;2.95;;
34924;SDS011;21130;51.728;8.748;2023-08-08T01:50:20;3.85;;;3.15;;
34924;SDS011;21130;51.728;8.748;2023-08-08T01:52:47;5.13;;;3.00;;
34924;SDS011;21130;51.728;8.748;2023-08-08T01:55:14;5.95;;;2.83;;
34924;SDS011;21130;51.728;8.748;2023-08-08T01:57:42;4.43;;;2.42;;
34924;SDS011;21130;51.728;8.748;2023-08-08T02:00:11;4.18;;;2.83;;
34924;SDS011;21130;51.728;8.748;2023-08-08T02:02:38;4.55;;;2.72;;
34924;SDS011;21130;51.728;8.748;2023-08-08T02:05:05;3.78;;;2.67;;
34924;SDS011;21130;51.728;8.748;2023-08-08T02:07:32;4.43;;;2.90;;
34924;SDS011;21130;51.728;8.748;2023-08-08T02:09:58;6.78;;;3.35;;
34924;SDS011;21130;51.728;8.748;2023-08-08T02:12:25;5.65;;;3.45;;
34924;SDS011;21130;51.728;8.748;2023-08-08T02:14:53;4.85;;;3.10;;
34924;SDS011;21130;51.728;8.748;2023-08-08T02:17:24;3.40;;;3.10;;
34924;SDS011;21130;51.728;8.748;2023-08-08T02:19:51;3.67;;;3.13;;
34924;SDS011;21130;51.728;8.748;2023-08-08T02:22:17;4.97;;;3.30;;
34924;SDS011;21130;51.728;8.748;2023-08-08T02:24:44;4.90;;;3.72;;
34924;SDS011;21130;51.728;8.748;2023-08-08T02:27:11;4.20;;;3.45;;
34924;SDS011;21130;51.728;8.748;2023-08-08T02:29:39;4.35;;;3.53;;
34924;SDS011;21130;51.728;8.748;2023-08-08T02:32:06;4.80;;;3.88;;
34924;SDS011;21130;51.728;8.748;2023-08-08T02:34:34;5.40;;;3.92;;
34924;SDS011;21130;51.728;8.748;2023-08-08T02:37:00;3.92;;;3.63;;
34924;SDS011;21130;51.728;8.748;2023-08-08T02:39:27;5.07;;;4.10;;
34924;SDS011;21130;51.728;8.748;2023-08-08T02:41:54;4.03;;;3.53;;
34924;SDS011;21130;51.728;8.748;2023-08-08T02:44:20;3.92;;;3.33;;
34924;SDS011;21130;51.728;8.748;2023-08-08T02:46:47;5.72;;;3.50;;
34924;SDS011;21130;51.728;8.748;2023-08-08T02:49:14;4.18;;;3.78;;
34924;SDS011;21130;51.728;8.748;2023-08-08T02:51:42;3.20;;;2.90;;
34924;SDS011;21130;51.728;8.748;2023-08-08T02:57:15;3.22;;;2.88;;
34924;SDS011;21130;51.728;8.748;2023-08-08T02:59:42;4.75;;;3.10;;
34924;SDS011;21130;51.728;8.748;2023-08-08T03:02:09;3.42;;;3.13;;
34924;SDS011;21130;51.728;8.748;2023-08-08T03:04:35;4.07;;;3.17;;
34924;SDS011;21130;51.728;8.748;2023-08-08T03:07:03;4.28;;;3.70;;
34924;SDS011;21130;51.728;8.748;2023-08-08T03:09:31;4.93;;;3.33;;
34924;SDS011;21130;51.728;8.748;2023-08-08T03:11:57;4.95;;;3.22;;
34924;SDS011;21130;51.728;8.748;2023-08-08T03:14:24;3.78;;;3.10;;
34924;SDS011;21130;51.728;8.748;2023-08-08T03:16:50;4.38;;;3.63;;
34924;SDS011;21130;51.728;8.748;2023-08-08T03:19:17;4.68;;;3.90;;
34924;SDS011;21130;51.728;8.748;2023-08-08T03:21:43;5.07;;;4.32;;
34924;SDS011;21130;51.728;8.748;2023-08-08T03:24:11;5.88;;;5.38;;
34924;SDS011;21130;51.728;8.748;2023-08-08T03:26:38;5.22;;;4.78;;
34924;SDS011;21130;51.728;8.748;2023-08-08T03:29:04;5.47;;;4.75;;
34924;SDS011;21130;51.728;8.748;2023-08-08T03:31:34;5.00;;;4.47;;
34924;SDS011;21130;51.728;8.748;2023-08-08T03:34:01;4.90;;;4.50;;
34924;SDS011;21130;51.728;8.748;2023-08-08T03:36:28;4.85;;;4.32;;
34924;SDS011;21130;51.728;8.748;2023-08-08T03:38:54;4.85;;;4.15;;
34924;SDS011;21130;51.728;8.748;2023-08-08T03:41:22;4.18;;;3.78;;
34924;SDS011;21130;51.728;8.748;2023-08-08T03:43:49;4.32;;;4.03;;
34924;SDS011;21130;51.728;8.748;2023-08-08T03:46:16;4.15;;;3.75;;
34924;SDS011;21130;51.728;8.748;2023-08-08T03:48:42;5.18;;;4.05;;
34924;SDS011;21130;51.728;8.748;2023-08-08T03:51:09;6.75;;;4.15;;
34924;SDS011;21130;51.728;8.748;2023-08-08T03:53:35;6.43;;;3.92;;
34924;SDS011;21130;51.728;8.748;2023-08-08T03:56:02;4.38;;;3.75;;
34924;SDS011;21130;51.728;8.748;2023-08-08T03:58:31;5.10;;;4.22;;
34924;SDS011;21130;51.728;8.748;2023-08-08T04:01:02;5.50;;;4.50;;
34924;SDS011;21130;51.728;8.748;2023-08-08T04:03:28;7.55;;;4.65;;
34924;SDS011;21130;51.728;8.748;2023-08-08T04:05:55;5.88;;;4.45;;
34924;SDS011;21130;51.728;8.748;2023-08-08T04:08:22;5.93;;;5.22;;
34924;SDS011;21130;51.728;8.748;2023-08-08T04:10:48;7.85;;;4.90;;
34924;SDS011;21130;51.728;8.748;2023-08-08T04:13:15;6.93;;;5.25;;
34924;SDS011;21130;51.728;8.748;2023-08-08T04:15:43;7.47;;;5.40;;
34924;SDS011;21130;51.728;8.748;2023-08-08T04:18:10;6.40;;;5.32;;
34924;SDS011;21130;51.728;8.748;2023-08-08T04:20:36;6.15;;;4.93;;
34924;SDS011;21130;51.728;8.748;2023-08-08T04:23:03;6.45;;;5.22;;
34924;SDS011;21130;51.728;8.748;2023-08-08T04:25:30;6.65;;;4.50;;
34924;SDS011;21130;51.728;8.748;2023-08-08T04:27:56;7.80;;;5.05;;
34924;SDS011;21130;51.728;8.748;2023-08-08T04:30:23;6.75;;;4.55;;
34924;SDS011;21130;51.728;8.748;2023-08-08T04:32:51;6.72;;;4.50;;
34924;SDS011;21130;51.728;8.748;2023-08-08T04:35:18;5.07;;;4.47;;
34924;SDS011;21130;51.728;8.748;2023-08-08T04:37:44;6.60;;;4.57;;
34924;SDS011;21130;51.728;8.748;2023-08-08T04:40:11;5.68;;;4.20;;
34924;SDS011;21130;51.728;8.748;2023-08-08T04:42:37;6.35;;;4.55;;
34924;SDS011;21130;51.728;8.748;2023-08-08T04:45:04;6.03;;;3.92;;
34924;SDS011;21130;51.728;8.748;2023-08-08T04:47:32;4.43;;;4.03;;
34924;SDS011;21130;51.728;8.748;2023-08-08T04:50:00;4.95;;;3.88;;
34924;SDS011;21130;51.728;8.748;2023-08-08T04:52:26;6.70;;;4.35;;
34924;SDS011;21130;51.728;8.748;2023-08-08T04:54:53;6.57;;;4.03;;
34924;SDS011;21130;51.728;8.748;2023-08-08T04:57:19;6.50;;;4.15;;
34924;SDS011;21130;51.728;8.748;2023-08-08T04:59:46;5.97;;;4.07;;
34924;SDS011;21130;51.728;8.748;2023-08-08T05:02:13;5.20;;;3.60;;
34924;SDS011;21130;51.728;8.748;2023-08-08T05:04:40;8.57;;;3.90;;
34924;SDS011;21130;51.728;8.748;2023-08-08T05:07:08;6.72;;;4.07;;
34924;SDS011;21130;51.728;8.748;2023-08-08T05:09:34;7.05;;;4.00;;
34924;SDS011;21130;51.728;8.748;2023-08-08T05:12:01;6.55;;;3.92;;
34924;SDS011;21130;51.728;8.748;2023-08-08T05:14:28;4.93;;;4.30;;
34924;SDS011;21130;51.728;8.748;2023-08-08T05:16:54;8.45;;;4.75;;
34924;SDS011;21130;51.728;8.748;2023-08-08T05:19:21;6.82;;;4.30;;
34924;SDS011;21130;51.728;8.748;2023-08-08T05:21:49;8.13;;;4.53;;
34924;SDS011;21130;51.728;8.748;2023-08-08T05:24:17;4.93;;;4.28;;
34924;SDS011;21130;51.728;8.748;2023-08-08T05:26:43;6.68;;;4.47;;
34924;SDS011;21130;51.728;8.748;2023-08-08T05:29:10;7.28;;;4.25;;
34924;SDS011;21130;51.728;8.748;2023-08-08T05:31:36;8.35;;;4.28;;
34924;SDS011;21130;51.728;8.748;2023-08-08T05:34:03;6.43;;;4.05;;
34924;SDS011;21130;51.728;8.748;2023-08-08T05:36:30;6.40;;;3.67;;
34924;SDS011;21130;51.728;8.748;2023-08-08T05:38:56;6.07;;;4.25;;
34924;SDS011;21130;51.728;8.748;2023-08-08T05:41:24;9.85;;;4.53;;
34924;SDS011;21130;51.728;8.748;2023-08-08T05:43:50;7.45;;;4.03;;
34924;SDS011;21130;51.728;8.748;2023-08-08T05:46:17;5.72;;;3.92;;
34924;SDS011;21130;51.728;8.748;2023-08-08T05:48:44;6.72;;;4.05;;
34924;SDS011;21130;51.728;8.748;2023-08-08T05:51:11;4.80;;;3.80;;
34924;SDS011;21130;51.728;8.748;2023-08-08T05:53:38;5.00;;;4.20;;
34924;SDS011;21130;51.728;8.748;2023-08-08T05:56:04;5.25;;;4.25;;
34924;SDS011;21130;51.728;8.748;2023-08-08T05:58:35;6.97;;;4.38;;
34924;SDS011;21130;51.728;8.748;2023-08-08T06:01:02;7.98;;;4.49;;
34924;SDS011;21130;51.728;8.748;2023-08-08T06:03:31;8.27;;;4.90;;
34924;SDS011;21130;51.728;8.748;2023-08-08T06:05:58;7.60;;;4.60;;
34924;SDS011;21130;51.728;8.748;2023-08-08T06:08:24;5.25;;;3.85;;
34924;SDS011;21130;51.728;8.748;2023-08-08T06:10:51;5.97;;;4.35;;
34924;SDS011;21130;51.728;8.748;2023-08-08T06:13:17;4.63;;;4.03;;
34924;SDS011;21130;51.728;8.748;2023-08-08T06:15:45;5.03;;;4.38;;
34924;SDS011;21130;51.728;8.748;2023-08-08T06:18:12;8.90;;;5.18;;
34924;SDS011;21130;51.728;8.748;2023-08-08T06:20:39;7.90;;;5.45;;
34924;SDS011;21130;51.728;8.748;2023-08-08T06:23:05;9.52;;;4.82;;
34924;SDS011;21130;51.728;8.748;2023-08-08T06:25:32;6.93;;;5.43;;
34924;SDS011;21130;51.728;8.748;2023-08-08T06:27:58;8.30;;;5.40;;
34924;SDS011;21130;51.728;8.748;2023-08-08T06:30:25;9.45;;;6.80;;
34924;SDS011;21130;51.728;8.748;2023-08-08T06:32:53;9.68;;;6.93;;
34924;SDS011;21130;51.728;8.748;2023-08-08T06:35:19;13.25;;;8.13;;
34924;SDS011;21130;51.728;8.748;2023-08-08T06:37:46;10.90;;;7.60;;
34924;SDS011;21130;51.728;8.748;2023-08-08T06:40:12;11.05;;;7.88;;
34924;SDS011;21130;51.728;8.748;2023-08-08T06:42:39;15.55;;;8.18;;
34924;SDS011;21130;51.728;8.748;2023-08-08T06:45:06;11.48;;;8.10;;
34924;SDS011;21130;51.728;8.748;2023-08-08T06:47:34;13.18;;;8.55;;
34924;SDS011;21130;51.728;8.748;2023-08-08T06:50:03;12.65;;;7.95;;
34924;SDS011;21130;51.728;8.748;2023-08-08T06:52:30;12.18;;;8.77;;
34924;SDS011;21130;51.728;8.748;2023-08-08T06:54:56;15.98;;;9.27;;
34924;SDS011;21130;51.728;8.748;2023-08-08T06:57:23;11.52;;;9.52;;
34924;SDS011;21130;51.728;8.748;2023-08-08T06:59:50;14.30;;;9.60;;
34924;SDS011;21130;51.728;8.748;2023-08-08T07:02:18;11.90;;;9.27;;
34924;SDS011;21130;51.728;8.748;2023-08-08T07:04:45;14.23;;;9.35;;
34924;SDS011;21130;51.728;8.748;2023-08-08T07:07:15;12.05;;;9.07;;
34924;SDS011;21130;51.728;8.748;2023-08-08T07:09:41;12.70;;;10.00;;
34924;SDS011;21130;51.728;8.748;2023-08-08T07:12:08;11.93;;;9.93;;
34924;SDS011;21130;51.728;8.748;2023-08-08T07:14:35;17.00;;;10.30;;
34924;SDS011;21130;51.728;8.748;2023-08-08T07:17:02;13.98;;;10.20;;
34924;SDS011;21130;51.728;8.748;2023-08-08T07:19:28;16.08;;;10.82;;
34924;SDS011;21130;51.728;8.748;2023-08-08T07:21:55;17.00;;;10.73;;
34924;SDS011;21130;51.728;8.748;2023-08-08T07:24:23;14.45;;;10.68;;
34924;SDS011;21130;51.728;8.748;2023-08-08T07:26:53;12.85;;;10.95;;
34924;SDS011;21130;51.728;8.748;2023-08-08T07:29:20;16.08;;;11.25;;
34924;SDS011;21130;51.728;8.748;2023-08-08T07:31:46;12.80;;;11.23;;
34924;SDS011;21130;51.728;8.748;2023-08-08T07:34:13;14.65;;;10.77;;
34924;SDS011;21130;51.728;8.748;2023-08-08T07:36:39;15.85;;;11.30;;
34924;SDS011;21130;51.728;8.748;2023-08-08T07:39:06;15.50;;;11.98;;
34924;SDS011;21130;51.728;8.748;2023-08-08T07:41:34;13.32;;;11.00;;
34924;SDS011;21130;51.728;8.748;2023-08-08T07:44:01;15.00;;;11.00;;
34924;SDS011;21130;51.728;8.748;2023-08-08T07:46:27;13.68;;;10.23;;
34924;SDS011;21130;51.728;8.748;2023-08-08T07:48:54;13.75;;;10.38;;
34924;SDS011;21130;51.728;8.748;2023-08-08T07:51:21;13.50;;;10.15;;
34924;SDS011;21130;51.728;8.748;2023-08-08T07:53:47;15.52;;;11.02;;
34924;SDS011;21130;51.728;8.748;2023-08-08T07:56:14;14.00;;;10.93;;
34924;SDS011;21130;51.728;8.748;2023-08-08T07:58:41;16.42;;;10.63;;
34924;SDS011;21130;51.728;8.748;2023-08-08T08:01:10;15.27;;;11.05;;
34924;SDS011;21130;51.728;8.748;2023-08-08T08:03:38;14.75;;;11.15;;
34924;SDS011;21130;51.728;8.748;2023-08-08T08:06:05;17.33;;;11.60;;
34924;SDS011;21130;51.728;8.748;2023-08-08T08:08:32;15.05;;;10.93;;
34924;SDS011;21130;51.728;8.748;2023-08-08T08:10:59;15.93;;;11.53;;
34924;SDS011;21130;51.728;8.748;2023-08-08T08:13:25;14.55;;;10.80;;
34924;SDS011;21130;51.728;8.748;2023-08-08T08:15:53;16.00;;;11.23;;
34924;SDS011;21130;51.728;8.748;2023-08-08T08:18:20;16.13;;;10.57;;
34924;SDS011;21130;51.728;8.748;2023-08-08T08:20:47;19.67;;;10.48;;
34924;SDS011;21130;51.728;8.748;2023-08-08T08:23:15;15.38;;;10.57;;
34924;SDS011;21130;51.728;8.748;2023-08-08T08:25:42;14.48;;;9.73;;
34924;SDS011;21130;51.728;8.748;2023-08-08T08:28:08;13.32;;;9.85;;
34924;SDS011;21130;51.728;8.748;2023-08-08T08:30:35;12.60;;;9.82;;
34924;SDS011;21130;51.728;8.748;2023-08-08T08:33:03;12.15;;;9.75;;
34924;SDS011;21130;51.728;8.748;2023-08-08T08:35:32;11.93;;;9.38;;
34924;SDS011;21130;51.728;8.748;2023-08-08T08:37:59;14.10;;;9.63;;
34924;SDS011;21130;51.728;8.748;2023-08-08T08:40:26;13.57;;;9.18;;
34924;SDS011;21130;51.728;8.748;2023-08-08T08:42:53;12.00;;;8.60;;
34924;SDS011;21130;51.728;8.748;2023-08-08T08:45:20;12.20;;;9.07;;
34924;SDS011;21130;51.728;8.748;2023-08-08T08:47:48;11.73;;;7.75;;
34924;SDS011;21130;51.728;8.748;2023-08-08T08:50:17;9.68;;;7.60;;
34924;SDS011;21130;51.728;8.748;2023-08-08T08:52:43;11.18;;;8.00;;
34924;SDS011;21130;51.728;8.748;2023-08-08T08:55:10;11.52;;;7.68;;
34924;SDS011;21130;51.728;8.748;2023-08-08T08:57:36;13.73;;;7.30;;
34924;SDS011;21130;51.728;8.748;2023-08-08T09:00:05;14.18;;;7.47;;
34924;SDS011;21130;51.728;8.748;2023-08-08T09:02:33;11.55;;;7.32;;
34924;SDS011;21130;51.728;8.748;2023-08-08T09:05:00;11.63;;;7.82;;
34924;SDS011;21130;51.728;8.748;2023-08-08T09:07:29;9.85;;;7.03;;
34924;SDS011;21130;51.728;8.748;2023-08-08T09:09:58;11.40;;;7.03;;
34924;SDS011;21130;51.728;8.748;2023-08-08T09:12:24;10.75;;;6.57;;
34924;SDS011;21130;51.728;8.748;2023-08-08T09:14:54;11.40;;;6.35;;
34924;SDS011;21130;51.728;8.748;2023-08-08T09:17:22;8.30;;;6.10;;
34924;SDS011;21130;51.728;8.748;2023-08-08T09:19:52;10.85;;;6.20;;
34924;SDS011;21130;51.728;8.748;2023-08-08T09:22:19;12.05;;;5.30;;
34924;SDS011;21130;51.728;8.748;2023-08-08T09:24:47;10.00;;;5.25;;
34924;SDS011;21130;51.728;8.748;2023-08-08T09:27:14;8.27;;;4.70;;
34924;SDS011;21130;51.728;8.748;2023-08-08T09:29:41;9.18;;;5.00;;
34924;SDS011;21130;51.728;8.748;2023-08-08T09:32:08;9.82;;;5.20;;
34924;SDS011;21130;51.728;8.748;2023-08-08T09:34:35;8.32;;;4.45;;
34924;SDS011;21130;51.728;8.748;2023-08-08T09:37:01;7.45;;;4.75;;
34924;SDS011;21130;51.728;8.748;2023-08-08T09:39:30;7.82;;;4.60;;
34924;SDS011;21130;51.728;8.748;2023-08-08T09:41:58;7.78;;;4.18;;
34924;SDS011;21130;51.728;8.748;2023-08-08T09:44:25;13.02;;;4.75;;
34924;SDS011;21130;51.728;8.748;2023-08-08T09:46:54;7.57;;;4.18;;
34924;SDS011;21130;51.728;8.748;2023-08-08T09:49:21;9.18;;;4.70;;
34924;SDS011;21130;51.728;8.748;2023-08-08T09:51:48;7.75;;;4.20;;
34924;SDS011;21130;51.728;8.748;2023-08-08T09:54:16;14.68;;;4.53;;
34924;SDS011;21130;51.728;8.748;2023-08-08T09:56:43;9.25;;;3.70;;
34924;SDS011;21130;51.728;8.748;2023-08-08T09:59:11;9.60;;;4.28;;
34924;SDS011;21130;51.728;8.748;2023-08-08T10:01:38;5.57;;;3.55;;
34924;SDS011;21130;51.728;8.748;2023-08-08T10:04:07;9.00;;;3.10;;
34924;SDS011;21130;51.728;8.748;2023-08-08T10:06:34;9.77;;;3.47;;
34924;SDS011;21130;51.728;8.748;2023-08-08T10:09:01;4.47;;;2.78;;
34924;SDS011;21130;51.728;8.748;2023-08-08T10:11:31;3.85;;;3.05;;
34924;SDS011;21130;51.728;8.748;2023-08-08T10:14:00;5.90;;;3.30;;
34924;SDS011;21130;51.728;8.748;2023-08-08T10:16:31;5.95;;;3.00;;
34924;SDS011;21130;51.728;8.748;2023-08-08T10:18:58;9.07;;;3.40;;
34924;SDS011;21130;51.728;8.748;2023-08-08T10:21:26;6.30;;;3.38;;
34924;SDS011;21130;51.728;8.748;2023-08-08T10:24:03;5.95;;;3.53;;
34924;SDS011;21130;51.728;8.748;2023-08-08T10:26:31;6.80;;;3.92;;
34924;SDS011;21130;51.728;8.748;2023-08-08T10:28:59;7.25;;;4.00;;
34924;SDS011;21130;51.728;8.748;2023-08-08T10:31:27;7.72;;;4.07;;
34924;SDS011;21130;51.728;8.748;2023-08-08T10:34:04;5.80;;;4.40;;
34924;SDS011;21130;51.728;8.748;2023-08-08T10:36:44;5.35;;;4.07;;
34924;SDS011;21130;51.728;8.748;2023-08-08T10:39:16;5.50;;;4.43;;
34924;SDS011;21130;51.728;8.748;2023-08-08T10:41:44;6.63;;;4.07;;
34924;SDS011;21130;51.728;8.748;2023-08-08T10:44:12;8.27;;;4.55;;
34924;SDS011;21130;51.728;8.748;2023-08-08T10:46:40;6.70;;;4.30;;
34924;SDS011;21130;51.728;8.748;2023-08-08T10:49:10;5.88;;;4.03;;
34924;SDS011;21130;51.728;8.748;2023-08-08T10:51:40;5.85;;;4.18;;
34924;SDS011;21130;51.728;8.748;2023-08-08T10:54:12;7.82;;;4.07;;
34924;SDS011;21130;51.728;8.748;2023-08-08T10:56:40;6.07;;;3.80;;
34924;SDS011;21130;51.728;8.748;2023-08-08T10:59:13;7.90;;;4.28;;
34924;SDS011;21130;51.728;8.748;2023-08-08T11:01:42;6.57;;;3.70;;
34924;SDS011;21130;51.728;8.748;2023-08-08T11:04:12;7.22;;;3.65;;
34924;SDS011;21130;51.728;8.748;2023-08-08T11:06:40;6.93;;;3.67;;
34924;SDS011;21130;51.728;8.748;2023-08-08T11:09:07;8.00;;;3.63;;
34924;SDS011;21130;51.728;8.748;2023-08-08T11:11:38;6.53;;;3.65;;
34924;SDS011;21130;51.728;8.748;2023-08-08T11:14:09;7.63;;;3.58;;
34924;SDS011;21130;51.728;8.748;2023-08-08T11:16:36;5.32;;;3.17;;
34924;SDS011;21130;51.728;8.748;2023-08-08T11:19:03;6.53;;;3.38;;
34924;SDS011;21130;51.728;8.748;2023-08-08T11:21:34;6.13;;;2.58;;
34924;SDS011;21130;51.728;8.748;2023-08-08T11:24:01;6.20;;;2.97;;
34924;SDS011;21130;51.728;8.748;2023-08-08T11:26:28;3.65;;;2.22;;
34924;SDS011;21130;51.728;8.748;2023-08-08T11:28:57;4.78;;;2.40;;
34924;SDS011;21130;51.728;8.748;2023-08-08T11:31:23;5.28;;;2.55;;
34924;SDS011;21130;51.728;8.748;2023-08-08T11:33:50;4.35;;;2.03;;
34924;SDS011;21130;51.728;8.748;2023-08-08T11:36:18;7.63;;;2.45;;
34924;SDS011;21130;51.728;8.748;2023-08-08T11:38:47;5.10;;;2.05;;
34924;SDS011;21130;51.728;8.748;2023-08-08T11:41:14;3.88;;;1.90;;
34924;SDS011;21130;51.728;8.748;2023-08-08T11:43:43;5.57;;;2.22;;
34924;SDS011;21130;51.728;8.748;2023-08-08T11:46:10;5.13;;;2.28;;
34924;SDS011;21130;51.728;8.748;2023-08-08T11:48:38;6.13;;;2.30;;
34924;SDS011;21130;51.728;8.748;2023-08-08T11:51:04;3.72;;;2.30;;
34924;SDS011;21130;51.728;8.748;2023-08-08T11:53:31;4.97;;;2.50;;
34924;SDS011;21130;51.728;8.748;2023-08-08T11:56:00;7.45;;;1.92;;
34924;SDS011;21130;51.728;8.748;2023-08-08T11:58:31;3.10;;;1.33;;
34924;SDS011;21130;51.728;8.748;2023-08-08T12:00:58;4.28;;;1.70;;
34924;SDS011;21130;51.728;8.748;2023-08-08T12:03:25;3.67;;;1.60;;
34924;SDS011;21130;51.728;8.748;2023-08-08T12:05:52;3.80;;;1.77;;
34924;SDS011;21130;51.728;8.748;2023-08-08T12:08:18;3.22;;;1.80;;
34924;SDS011;21130;51.728;8.748;2023-08-08T12:10:49;5.40;;;1.70;;
34924;SDS011;21130;51.728;8.748;2023-08-08T12:13:20;5.00;;;1.73;;
34924;SDS011;21130;51.728;8.748;2023-08-08T12:18:41;7.65;;;2.47;;
34924;SDS011;21130;51.728;8.748;2023-08-08T12:21:08;3.83;;;2.10;;
34924;SDS011;21130;51.728;8.748;2023-08-08T12:23:36;4.78;;;2.13;;
34924;SDS011;21130;51.728;8.748;2023-08-08T12:26:03;3.42;;;1.92;;
34924;SDS011;21130;51.728;8.748;2023-08-08T12:28:32;7.63;;;2.08;;
34924;SDS011;21130;51.728;8.748;2023-08-08T12:30:59;5.32;;;2.03;;
34924;SDS011;21130;51.728;8.748;2023-08-08T12:33:26;6.65;;;2.13;;
34924;SDS011;21130;51.728;8.748;2023-08-08T12:35:53;3.47;;;2.33;;
34924;SDS011;21130;51.728;8.748;2023-08-08T12:38:20;3.53;;;2.00;;
34924;SDS011;21130;51.728;8.748;2023-08-08T12:40:47;6.57;;;2.45;;
34924;SDS011;21130;51.728;8.748;2023-08-08T12:43:14;3.33;;;2.03;;
34924;SDS011;21130;51.728;8.748;2023-08-08T12:45:43;5.57;;;2.38;;
34924;SDS011;21130;51.728;8.748;2023-08-08T12:48:11;5.55;;;2.15;;
34924;SDS011;21130;51.728;8.748;2023-08-08T12:50:37;4.60;;;2.20;;
34924;SDS011;21130;51.728;8.748;2023-08-08T12:53:05;4.72;;;2.13;;
34924;SDS011;21130;51.728;8.748;2023-08-08T12:55:33;5.13;;;2.00;;
34924;SDS011;21130;51.728;8.748;2023-08-08T12:58:00;10.50;;;2.42;;
34924;SDS011;21130;51.728;8.748;2023-08-08T13:00:26;3.00;;;1.90;;
34924;SDS011;21130;51.728;8.748;2023-08-08T13:02:54;4.35;;;1.90;;
34924;SDS011;21130;51.728;8.748;2023-08-08T13:05:21;4.80;;;1.77;;
34924;SDS011;21130;51.728;8.748;2023-08-08T13:07:48;3.35;;;1.67;;
34924;SDS011;21130;51.728;8.748;2023-08-08T13:10:15;4.20;;;1.83;;
34924;SDS011;21130;51.728;8.748;2023-08-08T13:12:44;4.70;;;2.00;;
34924;SDS011;21130;51.728;8.748;2023-08-08T13:15:11;6.43;;;1.98;;
34924;SDS011;21130;51.728;8.748;2023-08-08T13:17:38;3.35;;;1.63;;
34924;SDS011;21130;51.728;8.748;2023-08-08T13:20:06;4.07;;;1.90;;
34924;SDS011;21130;51.728;8.748;2023-08-08T13:22:35;4.53;;;2.25;;
34924;SDS011;21130;51.728;8.748;2023-08-08T13:25:02;4.18;;;2.05;;
34924;SDS011;21130;51.728;8.748;2023-08-08T13:27:30;4.97;;;2.10;;
34924;SDS011;21130;51.728;8.748;2023-08-08T13:29:57;5.68;;;2.15;;
34924;SDS011;21130;51.728;8.748;2023-08-08T13:32:24;6.88;;;2.40;;
34924;SDS011;21130;51.728;8.748;2023-08-08T13:34:50;5.10;;;2.00;;
34924;SDS011;21130;51.728;8.748;2023-08-08T13:37:18;7.65;;;2.28;;
34924;SDS011;21130;51.728;8.748;2023-08-08T13:39:45;5.25;;;1.95;;
34924;SDS011;21130;51.728;8.748;2023-08-08T13:42:11;7.10;;;2.50;;
34924;SDS011;21130;51.728;8.748;2023-08-08T13:44:38;4.03;;;2.00;;
34924;SDS011;21130;51.728;8.748;2023-08-08T13:47:05;3.30;;;1.80;;
34924;SDS011;21130;51.728;8.748;2023-08-08T13:49:31;2.92;;;1.77;;
34924;SDS011;21130;51.728;8.748;2023-08-08T13:51:58;2.17;;;1.67;;
34924;SDS011;21130;51.728;8.748;2023-08-08T13:54:26;3.15;;;1.77;;
34924;SDS011;21130;51.728;8.748;2023-08-08T13:56:53;7.10;;;1.90;;
34924;SDS011;21130;51.728;8.748;2023-08-08T13:59:19;3.45;;;1.70;;
34924;SDS011;21130;51.728;8.748;2023-08-08T14:01:46;4.18;;;1.58;;
34924;SDS011;21130;51.728;8.748;2023-08-08T14:04:12;7.38;;;2.08;;
34924;SDS011;21130;51.728;8.748;2023-08-08T14:06:39;3.60;;;2.00;;
34924;SDS011;21130;51.728;8.748;2023-08-08T14:09:06;3.65;;;1.88;;
34924;SDS011;21130;51.728;8.748;2023-08-08T14:11:53;4.88;;;1.92;;
34924;SDS011;21130;51.728;8.748;2023-08-08T14:14:38;3.83;;;2.00;;
34924;SDS011;21130;51.728;8.748;2023-08-08T14:17:05;5.70;;;1.85;;
34924;SDS011;21130;51.728;8.748;2023-08-08T14:19:32;4.75;;;2.13;;
34924;SDS011;21130;51.728;8.748;2023-08-08T14:21:58;3.88;;;2.00;;
34924;SDS011;21130;51.728;8.748;2023-08-08T14:24:25;4.63;;;2.30;;
34924;SDS011;21130;51.728;8.748;2023-08-08T14:26:53;6.35;;;1.90;;
34924;SDS011;21130;51.728;8.748;2023-08-08T14:29:20;5.10;;;1.98;;
34924;SDS011;21130;51.728;8.748;2023-08-08T14:31:46;4.25;;;1.92;;
34924;SDS011;21130;51.728;8.748;2023-08-08T14:34:14;4.97;;;1.95;;
34924;SDS011;21130;51.728;8.748;2023-08-08T14:36:41;4.15;;;2.10;;
34924;SDS011;21130;51.728;8.748;2023-08-08T14:39:08;4.55;;;2.25;;
34924;SDS011;21130;51.728;8.748;2023-08-08T14:41:35;4.80;;;1.88;;
34924;SDS011;21130;51.728;8.748;2023-08-08T14:44:04;3.95;;;1.80;;
34924;SDS011;21130;51.728;8.748;2023-08-08T14:46:30;3.80;;;2.10;;
34924;SDS011;21130;51.728;8.748;2023-08-08T14:48:59;3.63;;;1.65;;
34924;SDS011;21130;51.728;8.748;2023-08-08T14:51:25;5.03;;;1.80;;